Terminal Aerodrome Forecast
Issued by NWS Milwaukee/Sullivan, WI

Home | Current Version | Previous Version | Text Only | Print | Product List | Glossary On
Versions: 1 2 3 4 5 6 7 8 9 10 11 12 13 14 15 16 17 18 19 20 21 22 23 24 25 26 27 28 29 30 31 32 33 34 35 36
000
FTUS43 KMKX 011744
TAFMKE
TAF
KMKE 011744Z 0118/0224 04011G19KT P6SM BKN015 OVC035
     FM012300 03008KT P6SM VCSH OVC015
     FM020200 03011KT P6SM VCSH OVC025
     FM020600 02007KT P6SM BKN050
     FM020900 01007KT P6SM SCT040
     FM021400 03010KT P6SM SCT040=

USA.gov is the U.S. government's official web portal to all federal, state and local government web resources and services.